createdAt,value
2023-05-06T00:00:12.371Z,20.9083
2023-05-06T00:01:14.719Z,20.8000
2023-05-06T00:02:16.981Z,17.8500
2023-05-06T00:03:18.690Z,19.9417
2023-05-06T00:04:22.079Z,22.2500
2023-05-06T00:05:23.888Z,21.1250
2023-05-06T00:06:25.616Z,20.6917
2023-05-06T00:07:28.076Z,18.9077
2023-05-06T00:08:30.383Z,20.0364
2023-05-06T00:09:32.661Z,20.1083
2023-05-06T00:10:35.114Z,20.8846
2023-05-06T00:11:38.117Z,19.5167
2023-05-06T00:12:39.676Z,20.4667
2023-05-06T00:13:42.013Z,19.6154
2023-05-06T00:14:44.959Z,18.8308
2023-05-06T00:15:46.657Z,19.6667
2023-05-06T00:16:49.066Z,20.6417
2023-05-06T00:17:51.760Z,19.3333
2023-05-06T00:18:54.090Z,19.7917
2023-05-06T00:19:56.025Z,20.2750
2023-05-06T00:20:58.359Z,19.8231
2023-05-06T00:22:00.692Z,21.5538
2023-05-06T00:23:03.025Z,20.2923
2023-05-06T00:24:05.464Z,19.2615
2023-05-06T00:25:08.134Z,20.5385
2023-05-06T00:26:10.190Z,21.4250
2023-05-06T00:27:12.499Z,20.7667
2023-05-06T00:28:14.812Z,18.5667
2023-05-06T00:29:17.793Z,19.9250
2023-05-06T00:30:21.511Z,20.4250
2023-05-06T00:31:22.351Z,21.4083
2023-05-06T00:32:24.348Z,22.1250
2023-05-06T00:33:26.421Z,23.0167
2023-05-06T00:34:28.979Z,21.5923
2023-05-06T00:35:31.161Z,21.3583
2023-05-06T00:36:33.764Z,19.9917
2023-05-06T00:37:35.791Z,20.9000
2023-05-06T00:38:39.850Z,21.9846
2023-05-06T00:39:41.872Z,22.5333
2023-05-06T00:40:42.894Z,22.2583
2023-05-06T00:41:45.140Z,21.6333
2023-05-06T00:42:47.457Z,22.2833
2023-05-06T00:43:49.813Z,22.8615
2023-05-06T00:44:52.168Z,22.3923
2023-05-06T00:45:54.557Z,22.5846
2023-05-06T00:46:56.783Z,22.0231
2023-05-06T00:47:59.238Z,22.6462
2023-05-06T00:49:01.515Z,23.2750
2023-05-06T00:50:03.817Z,22.0154
2023-05-06T00:51:06.154Z,22.1385
2023-05-06T00:52:08.485Z,22.9308
2023-05-06T00:53:10.821Z,20.5231
2023-05-06T00:54:13.164Z,20.3077
2023-05-06T00:55:15.565Z,22.3308
2023-05-06T00:56:20.017Z,22.6846
2023-05-06T00:57:20.168Z,21.9250
2023-05-06T00:58:22.510Z,22.7182
2023-05-06T00:59:24.879Z,22.5462
2023-05-06T01:00:27.195Z,22.7500
2023-05-06T01:01:29.582Z,21.3308
2023-05-06T01:02:43.282Z,21.8917
2023-05-06T01:03:34.292Z,20.9273
2023-05-06T01:04:36.559Z,20.5000
2023-05-06T01:05:38.866Z,22.0769
2023-05-06T01:06:41.195Z,22.5000
2023-05-06T01:07:43.542Z,22.9385
2023-05-06T01:08:45.885Z,22.9154
2023-05-06T01:09:48.289Z,22.3000
2023-05-06T01:10:50.713Z,23.2385
2023-05-06T01:11:52.975Z,22.3308
2023-05-06T01:12:55.376Z,21.9000
2023-05-06T01:13:57.657Z,22.8250
2023-05-06T01:15:00.033Z,21.9769
2023-05-06T01:16:02.336Z,21.5000
2023-05-06T01:17:04.705Z,21.5385
2023-05-06T01:18:07.051Z,23.3923
2023-05-06T01:19:09.376Z,22.1417
2023-05-06T01:20:11.738Z,22.4545
2023-05-06T01:21:14.014Z,21.9923
2023-05-06T01:22:16.358Z,22.3077
2023-05-06T01:23:18.713Z,22.0923
2023-05-06T01:24:21.054Z,22.7769
2023-05-06T01:25:23.391Z,21.0077
2023-05-06T01:26:25.808Z,21.8769
2023-05-06T01:27:28.145Z,20.9083
2023-05-06T01:28:30.428Z,21.7364
2023-05-06T01:29:32.832Z,20.6000
2023-05-06T01:30:35.105Z,21.3273
2023-05-06T01:31:37.509Z,21.3077
2023-05-06T01:32:39.783Z,21.7000
2023-05-06T01:33:42.114Z,21.8000
2023-05-06T01:34:44.593Z,21.1462
2023-05-06T01:35:46.837Z,20.7583
2023-05-06T01:36:49.147Z,22.0583
2023-05-06T01:37:51.552Z,22.7846
2023-05-06T01:38:53.784Z,21.5667
2023-05-06T01:39:56.144Z,22.3154
2023-05-06T01:40:58.488Z,20.6615
2023-05-06T01:42:00.824Z,20.6167
2023-05-06T01:43:03.181Z,19.8308
2023-05-06T01:44:05.453Z,20.5417
2023-05-06T01:45:08.170Z,20.2538
2023-05-06T01:46:10.357Z,19.0167
2023-05-06T01:47:12.649Z,19.6667
2023-05-06T01:48:14.852Z,21.5500
2023-05-06T01:49:17.199Z,21.4154
2023-05-06T01:50:19.476Z,23.1692
2023-05-06T01:51:21.896Z,22.1769
2023-05-06T01:52:24.183Z,21.6667
2023-05-06T01:53:26.527Z,22.8846
2023-05-06T01:54:28.870Z,21.4538
2023-05-06T01:55:31.198Z,21.4000
2023-05-06T01:56:33.555Z,22.0308
2023-05-06T01:57:35.937Z,20.9538
2023-05-06T01:58:38.209Z,21.2769
2023-05-06T01:59:40.555Z,21.2846
2023-05-06T02:00:42.891Z,20.8769
2023-05-06T02:01:45.283Z,20.3538
2023-05-06T02:02:47.716Z,19.3615
2023-05-06T02:03:50.064Z,21.6833
2023-05-06T02:04:52.232Z,21.8750
2023-05-06T02:05:54.564Z,21.6846
2023-05-06T02:06:56.918Z,22.1500
2023-05-06T02:07:59.209Z,22.6077
2023-05-06T02:09:01.573Z,23.5077
2023-05-06T02:10:03.919Z,23.2615
2023-05-06T02:11:06.253Z,23.4077
2023-05-06T02:12:08.647Z,22.5462
2023-05-06T02:13:11.054Z,22.1583
2023-05-06T02:14:13.257Z,21.6417
2023-05-06T02:15:15.709Z,21.4692
2023-05-06T02:16:17.979Z,21.4667
2023-05-06T02:17:20.369Z,22.1231
2023-05-06T02:18:22.745Z,22.6667
2023-05-06T02:19:24.959Z,20.1417
2023-05-06T02:20:27.342Z,20.8308
2023-05-06T02:21:29.802Z,21.8417
2023-05-06T02:22:31.991Z,20.8167
2023-05-06T02:23:34.318Z,20.1154
2023-05-06T02:24:36.904Z,20.5846
2023-05-06T02:25:39.133Z,21.1909
2023-05-06T02:26:41.462Z,21.5500
2023-05-06T02:27:43.743Z,20.9417
2023-05-06T02:28:46.102Z,19.0833
2023-05-06T02:29:48.348Z,19.5333
2023-05-06T02:30:50.692Z,19.5846
2023-05-06T02:31:53.171Z,21.8846
2023-05-06T02:32:55.422Z,21.0583
2023-05-06T02:33:57.809Z,20.0500
2023-05-06T02:35:00.065Z,19.5727
2023-05-06T02:36:02.809Z,20.4538
2023-05-06T02:37:04.707Z,20.6167
2023-05-06T02:38:07.082Z,21.5000
2023-05-06T02:39:09.572Z,20.5846
2023-05-06T02:40:11.843Z,19.4750
2023-05-06T02:41:14.097Z,18.9583
2023-05-06T02:42:16.614Z,18.8833
2023-05-06T02:43:19.217Z,18.9917
2023-05-06T02:44:21.176Z,19.9750
2023-05-06T02:45:23.465Z,17.9462
2023-05-06T02:46:25.799Z,19.0077
2023-05-06T02:47:28.179Z,20.2231
2023-05-06T02:48:30.491Z,19.6385
2023-05-06T02:49:32.855Z,19.9077
2023-05-06T02:50:35.162Z,18.0231
2023-05-06T02:51:37.496Z,18.8692
2023-05-06T02:52:39.841Z,19.6154
2023-05-06T02:53:42.178Z,19.8154
2023-05-06T02:54:44.530Z,19.1692
2023-05-06T02:55:47.008Z,17.0154
2023-05-06T02:56:49.210Z,19.0000
2023-05-06T02:57:51.552Z,18.5231
2023-05-06T02:58:53.919Z,19.7308
2023-05-06T02:59:56.316Z,19.3538
2023-05-06T03:00:58.592Z,19.5000
2023-05-06T03:02:00.917Z,19.8231
2023-05-06T03:03:03.267Z,21.2909
2023-05-06T03:04:05.632Z,19.9077
2023-05-06T03:05:08.163Z,20.7692
2023-05-06T03:06:10.283Z,20.1417
2023-05-06T03:07:12.614Z,19.7000
2023-05-06T03:08:14.959Z,19.0231
2023-05-06T03:09:17.319Z,19.3455
2023-05-06T03:10:19.644Z,20.7538
2023-05-06T03:11:21.986Z,18.9385
2023-05-06T03:12:24.321Z,20.2231
2023-05-06T03:13:26.657Z,19.8692
2023-05-06T03:14:29.007Z,19.1000
2023-05-06T03:15:31.417Z,19.9154
2023-05-06T03:16:33.678Z,19.6231
2023-05-06T03:17:36.145Z,19.7462
2023-05-06T03:18:38.379Z,20.0500
2023-05-06T03:19:40.724Z,19.1846
2023-05-06T03:20:43.055Z,18.9077
2023-05-06T03:21:45.452Z,19.0615
2023-05-06T03:22:47.727Z,19.3923
2023-05-06T03:23:50.090Z,20.0923
2023-05-06T03:24:52.435Z,19.8846
2023-05-06T03:25:54.749Z,19.0077
2023-05-06T03:26:57.070Z,19.5308
2023-05-06T03:27:59.422Z,19.6615
2023-05-06T03:29:01.783Z,20.5769
2023-05-06T03:30:04.138Z,20.5231
2023-05-06T03:31:06.745Z,19.1077
2023-05-06T03:32:08.809Z,19.3083
2023-05-06T03:33:11.126Z,20.6308
2023-05-06T03:34:13.491Z,20.6077
2023-05-06T03:35:15.860Z,20.8308
2023-05-06T03:36:18.172Z,20.2455
2023-05-06T03:37:20.519Z,20.0692
2023-05-06T03:38:22.842Z,20.0692
2023-05-06T03:39:25.188Z,19.6154
2023-05-06T03:40:27.573Z,19.9308
2023-05-06T03:41:29.891Z,18.8462
2023-05-06T03:42:32.232Z,19.2231
2023-05-06T03:43:34.552Z,20.0154
2023-05-06T03:44:36.892Z,18.7000
2023-05-06T03:45:39.201Z,21.0846
2023-05-06T03:46:41.953Z,19.7000
2023-05-06T03:47:43.932Z,19.0167
2023-05-06T03:48:46.242Z,20.4417
2023-05-06T03:49:48.613Z,18.9769
2023-05-06T03:50:50.959Z,19.8462
2023-05-06T03:51:53.279Z,21.1154
2023-05-06T03:52:55.619Z,19.6231
2023-05-06T03:53:57.957Z,19.7308
2023-05-06T03:55:00.304Z,21.5538
2023-05-06T03:56:02.656Z,20.2538
2023-05-06T03:57:04.979Z,21.5462
2023-05-06T03:58:07.315Z,20.0231
2023-05-06T03:59:09.655Z,20.1615
2023-05-06T04:00:11.970Z,20.2818
2023-05-06T04:01:14.337Z,20.7308
2023-05-06T04:02:16.853Z,19.7923
2023-05-06T04:03:19.089Z,20.0583
2023-05-06T04:04:21.374Z,21.0583
2023-05-06T04:05:23.720Z,20.1231
2023-05-06T04:06:26.058Z,21.0385
2023-05-06T04:07:28.392Z,21.1538
2023-05-06T04:08:30.745Z,19.6333
2023-05-06T04:09:33.088Z,21.2308
2023-05-06T04:10:35.420Z,20.5615
2023-05-06T04:11:37.759Z,21.1923
2023-05-06T04:12:40.106Z,20.3462
2023-05-06T04:13:42.460Z,20.7538
2023-05-06T04:14:45.225Z,21.1077
2023-05-06T04:15:47.824Z,20.8083
2023-05-06T04:16:49.472Z,21.1250
2023-05-06T04:17:52.062Z,20.3385
2023-05-06T04:18:54.162Z,19.7167
2023-05-06T04:19:56.469Z,19.3000
2023-05-06T04:20:58.964Z,21.7583
2023-05-06T04:22:01.508Z,21.5750
2023-05-06T04:23:03.524Z,21.8417
2023-05-06T04:24:06.393Z,22.4333
2023-05-06T04:25:08.401Z,21.3083
2023-05-06T04:26:10.966Z,22.0500
2023-05-06T04:27:13.970Z,22.0000
2023-05-06T04:28:15.654Z,22.3500
2023-05-06T04:29:17.626Z,21.1000
2023-05-06T04:30:19.922Z,22.1769
2023-05-06T04:31:22.272Z,22.6000
2023-05-06T04:32:24.609Z,21.9769
2023-05-06T04:33:26.959Z,22.5167
2023-05-06T04:34:29.301Z,21.9231
2023-05-06T04:35:31.633Z,21.1923
2023-05-06T04:36:33.992Z,20.8167
2023-05-06T04:37:36.513Z,21.7500
2023-05-06T04:38:38.667Z,22.2083
2023-05-06T04:39:41.010Z,21.7091
2023-05-06T04:40:43.480Z,22.0615
2023-05-06T04:41:45.656Z,19.6583
2023-05-06T04:42:48.006Z,20.2636
2023-05-06T04:43:50.306Z,21.8769
2023-05-06T04:44:52.695Z,20.5154
2023-05-06T04:45:55.050Z,20.6462
2023-05-06T04:46:57.383Z,19.5615
2023-05-06T04:47:59.732Z,19.8231
2023-05-06T04:49:02.122Z,18.8615
2023-05-06T04:50:04.422Z,19.4769
2023-05-06T04:51:06.718Z,20.1308
2023-05-06T04:52:09.066Z,19.8308
2023-05-06T04:53:11.400Z,22.5538
2023-05-06T04:54:13.761Z,22.5615
2023-05-06T04:55:16.122Z,22.2231
2023-05-06T04:56:18.434Z,22.5077
2023-05-06T04:57:20.774Z,22.2154
2023-05-06T04:58:23.120Z,22.5846
2023-05-06T04:59:25.482Z,22.9923
2023-05-06T05:00:27.820Z,21.7692
2023-05-06T05:01:30.206Z,21.1615
2023-05-06T05:02:32.573Z,21.7769
2023-05-06T05:03:34.920Z,24.4917
2023-05-06T05:04:37.171Z,23.5833
2023-05-06T05:05:39.530Z,22.9769
2023-05-06T05:06:41.864Z,22.3385
2023-05-06T05:07:44.193Z,22.7462
2023-05-06T05:08:46.551Z,22.5154
2023-05-06T05:09:48.885Z,22.1385
2023-05-06T05:10:51.245Z,21.8538
2023-05-06T05:11:53.568Z,22.0308
2023-05-06T05:12:55.952Z,22.5462
2023-05-06T05:13:59.579Z,23.6692
2023-05-06T05:15:00.717Z,23.4500
2023-05-06T05:16:03.044Z,24.8154
2023-05-06T05:17:05.418Z,23.6000
2023-05-06T05:18:07.820Z,24.4250
2023-05-06T05:19:10.060Z,24.1333
2023-05-06T05:20:12.411Z,22.7077
2023-05-06T05:21:14.760Z,22.9154
2023-05-06T05:22:17.088Z,22.8000
2023-05-06T05:23:19.426Z,22.7923
2023-05-06T05:24:21.765Z,21.1385
2023-05-06T05:25:24.104Z,22.6538
2023-05-06T05:26:26.450Z,22.0538
2023-05-06T05:27:28.801Z,23.2182
2023-05-06T05:28:31.139Z,23.1000
2023-05-06T05:29:33.482Z,23.6000
2023-05-06T05:30:35.819Z,22.9818
2023-05-06T05:31:38.190Z,21.3923
2023-05-06T05:32:40.507Z,22.3154
2023-05-06T05:33:42.889Z,24.6308
2023-05-06T05:34:45.203Z,22.2077
2023-05-06T05:35:47.609Z,20.6750
2023-05-06T05:36:49.873Z,21.0077
2023-05-06T05:37:52.213Z,22.8923
2023-05-06T05:38:54.569Z,22.4727
2023-05-06T05:39:56.899Z,23.4846
2023-05-06T05:40:59.234Z,22.7846
2023-05-06T05:42:01.587Z,22.9000
2023-05-06T05:43:03.916Z,21.9615
2023-05-06T05:44:06.259Z,23.5769
2023-05-06T05:45:08.706Z,23.1667
2023-05-06T05:46:10.951Z,21.1833
2023-05-06T05:47:13.272Z,21.0545
2023-05-06T05:48:15.616Z,21.9462
2023-05-06T05:49:17.967Z,21.1231
2023-05-06T05:50:20.296Z,21.3231
2023-05-06T05:51:22.820Z,20.9385
2023-05-06T05:52:24.978Z,20.9250
2023-05-06T05:53:27.317Z,19.3154
2023-05-06T05:54:29.698Z,20.0231
2023-05-06T05:55:31.995Z,20.4077
2023-05-06T05:56:34.338Z,19.7462
2023-05-06T05:57:37.504Z,19.4923
2023-05-06T05:58:39.062Z,20.2833
2023-05-06T05:59:41.414Z,21.0917
2023-05-06T06:00:44.040Z,20.2833
2023-05-06T06:01:46.465Z,20.3083
2023-05-06T06:02:48.426Z,20.5167
2023-05-06T06:03:50.948Z,20.4615
2023-05-06T06:04:53.249Z,21.3917
2023-05-06T06:05:55.596Z,20.7417
2023-05-06T06:06:57.917Z,21.5500
2023-05-06T06:08:02.210Z,20.8833
2023-05-06T06:09:02.400Z,21.7909
2023-05-06T06:10:04.787Z,22.3385
2023-05-06T06:11:07.168Z,21.3083
2023-05-06T06:12:09.424Z,21.4167
2023-05-06T06:13:11.877Z,22.8308
2023-05-06T06:14:14.171Z,21.5417
2023-05-06T06:15:16.459Z,20.9750
2023-05-06T06:16:18.855Z,20.7750
2023-05-06T06:17:21.677Z,21.9500
2023-05-06T06:18:23.467Z,20.7364
2023-05-06T06:19:25.823Z,21.2417
2023-05-06T06:20:28.154Z,22.2692
2023-05-06T06:21:30.635Z,20.4077
2023-05-06T06:22:32.991Z,21.1000
2023-05-06T06:23:35.241Z,21.0000
2023-05-06T06:24:37.539Z,21.4333
2023-05-06T06:25:39.996Z,21.6000
2023-05-06T06:26:42.277Z,21.7917
2023-05-06T06:27:44.605Z,20.0750
2023-05-06T06:28:47.030Z,20.1833
2023-05-06T06:29:49.205Z,19.6917
2023-05-06T06:30:52.605Z,21.1538
2023-05-06T06:31:54.862Z,20.8917
2023-05-06T06:32:56.483Z,20.1750
2023-05-06T06:33:58.907Z,20.0833
2023-05-06T06:35:00.890Z,21.5917
2023-05-06T06:36:03.232Z,20.9769
2023-05-06T06:37:07.806Z,19.2538
2023-05-06T06:38:12.313Z,23.0000
2023-05-06T06:39:10.239Z,21.5000
2023-05-06T06:40:14.890Z,23.2231
2023-05-06T06:41:15.096Z,21.6917
2023-05-06T06:42:17.789Z,20.8083
2023-05-06T06:43:19.593Z,21.9250
2023-05-06T06:44:22.857Z,20.9923
2023-05-06T06:45:24.811Z,20.4833
2023-05-06T06:46:26.627Z,21.0750
2023-05-06T06:47:29.055Z,20.5769
2023-05-06T06:48:31.366Z,20.1833
2023-05-06T06:49:33.728Z,20.9833
2023-05-06T06:50:35.975Z,21.6909
2023-05-06T06:51:38.310Z,19.9000
2023-05-06T06:52:40.720Z,21.2154
2023-05-06T06:53:43.120Z,21.9500
2023-05-06T06:54:45.334Z,21.5000
2023-05-06T06:55:47.770Z,22.4167
2023-05-06T06:56:50.007Z,21.9333
2023-05-06T06:57:52.345Z,21.4909
2023-05-06T06:58:54.665Z,21.5846
2023-05-06T06:59:57.136Z,21.8308
2023-05-06T07:00:59.406Z,20.2000
2023-05-06T07:02:01.671Z,21.8364
2023-05-06T07:03:04.139Z,20.2385
2023-05-06T07:04:07.227Z,20.8500
2023-05-06T07:05:08.992Z,21.2333
2023-05-06T07:06:11.009Z,21.7000
2023-05-06T07:07:13.511Z,22.0167
2023-05-06T07:08:16.059Z,20.8636
2023-05-06T07:09:18.100Z,21.8500
2023-05-06T07:10:20.730Z,21.6250
2023-05-06T07:11:22.802Z,19.1818
2023-05-06T07:12:25.234Z,22.1917
2023-05-06T07:13:27.438Z,20.4917
2023-05-06T07:14:29.736Z,22.2833
2023-05-06T07:15:32.200Z,20.0692
2023-05-06T07:16:34.409Z,19.2909
2023-05-06T07:17:36.919Z,20.5917
2023-05-06T07:18:39.814Z,19.8167
2023-05-06T07:19:41.422Z,19.9417
2023-05-06T07:20:43.798Z,18.8250
2023-05-06T07:21:46.120Z,17.1917
2023-05-06T07:22:48.471Z,17.1231
2023-05-06T07:23:50.816Z,16.3583
2023-05-06T07:24:53.287Z,15.5250
2023-05-06T07:25:55.539Z,14.8000
2023-05-06T07:26:58.055Z,14.2250
2023-05-06T07:28:00.139Z,16.0833
2023-05-06T07:29:11.842Z,18.2231
2023-05-06T07:30:04.888Z,19.1182
2023-05-06T07:31:07.356Z,17.9167
2023-05-06T07:32:09.589Z,18.4833
2023-05-06T07:33:11.970Z,17.3333
2023-05-06T07:34:14.566Z,18.0667
2023-05-06T07:35:16.536Z,17.2167
2023-05-06T07:36:18.853Z,15.7667
2023-05-06T07:37:21.229Z,14.3000
2023-05-06T07:38:23.558Z,14.4273
2023-05-06T07:39:25.958Z,12.5500
2023-05-06T07:40:28.294Z,13.7917
2023-05-06T07:41:30.551Z,13.6500
2023-05-06T07:42:32.935Z,12.9231
2023-05-06T07:43:35.327Z,9.8077
2023-05-06T07:44:37.588Z,10.1583
2023-05-06T07:45:40.022Z,9.9692
2023-05-06T07:46:42.440Z,10.9083
2023-05-06T07:47:44.687Z,10.6000
2023-05-06T07:48:46.986Z,9.2500
2023-05-06T07:49:49.316Z,10.0167
2023-05-06T07:50:51.965Z,8.8667
2023-05-06T07:51:54.032Z,6.8167
2023-05-06T07:52:56.597Z,6.1333
2023-05-06T07:53:58.762Z,4.6083
2023-05-06T07:55:01.008Z,3.9750
2023-05-06T07:56:03.425Z,3.6917
2023-05-06T07:57:06.159Z,3.0833
2023-05-06T07:58:08.012Z,2.8750
2023-05-06T07:59:10.477Z,2.7833
2023-05-06T08:00:12.878Z,2.9750
2023-05-06T08:01:15.041Z,2.5818
2023-05-06T08:02:17.591Z,2.3692
2023-05-06T08:03:20.219Z,2.6333
2023-05-06T08:04:22.754Z,2.7667
2023-05-06T08:05:25.467Z,2.6417
2023-05-06T08:06:27.395Z,2.4333
2023-05-06T08:07:29.279Z,2.2917
2023-05-06T08:08:31.541Z,2.1500
2023-05-06T08:09:34.030Z,2.2273
2023-05-06T08:10:36.250Z,2.0583
2023-05-06T08:11:39.137Z,2.2000
2023-05-06T08:12:40.879Z,2.0000
2023-05-06T08:13:43.262Z,2.0917
2023-05-06T08:14:47.174Z,1.5750
2023-05-06T08:15:47.961Z,1.4417
2023-05-06T08:16:50.415Z,1.3583
2023-05-06T08:17:52.965Z,1.4000
2023-05-06T08:18:55.454Z,1.5500
2023-05-06T08:19:57.288Z,1.6917
2023-05-06T08:20:59.623Z,1.8333
2023-05-06T08:22:02.285Z,1.6083
2023-05-06T08:23:04.713Z,1.5417
2023-05-06T08:24:06.781Z,1.5833
2023-05-06T08:25:11.006Z,1.5000
2023-05-06T08:26:11.330Z,1.7250
2023-05-06T08:27:15.013Z,1.5500
2023-05-06T08:28:15.958Z,1.7083
2023-05-06T08:29:18.405Z,1.8615
2023-05-06T08:30:20.674Z,1.7333
2023-05-06T08:31:23.028Z,1.7667
2023-05-06T08:32:25.530Z,1.5750
2023-05-06T08:33:27.694Z,1.6083
2023-05-06T08:34:30.024Z,1.3923
2023-05-06T08:35:32.419Z,1.6692
2023-05-06T08:36:34.672Z,1.6250
2023-05-06T08:37:37.167Z,1.6462
2023-05-06T08:38:39.390Z,1.6500
2023-05-06T08:39:41.741Z,1.6923
2023-05-06T08:40:44.054Z,1.6231
2023-05-06T08:41:46.425Z,1.5923
2023-05-06T08:42:48.764Z,1.6333
2023-05-06T08:43:51.073Z,1.5667
2023-05-06T08:44:53.466Z,1.6154
2023-05-06T08:45:55.861Z,1.5154
2023-05-06T08:46:58.142Z,1.5167
2023-05-06T08:48:00.519Z,1.5308
2023-05-06T08:49:02.824Z,1.5417
2023-05-06T08:50:05.170Z,1.5462
2023-05-06T08:51:07.540Z,1.6077
2023-05-06T08:52:09.862Z,1.5833
2023-05-06T08:53:12.259Z,1.7167
2023-05-06T08:54:14.534Z,1.7833
2023-05-06T08:55:17.579Z,1.8462
2023-05-06T08:56:19.253Z,2.0250
2023-05-06T08:57:21.568Z,1.6583
2023-05-06T08:58:23.986Z,1.8727
2023-05-06T08:59:26.328Z,1.8231
2023-05-06T09:00:28.695Z,1.7917
2023-05-06T09:01:31.071Z,1.7417
2023-05-06T09:02:33.424Z,1.7917
2023-05-06T09:03:35.691Z,1.7500
2023-05-06T09:04:38.042Z,1.7923
2023-05-06T09:05:40.368Z,1.6917
2023-05-06T09:06:42.738Z,1.6538
2023-05-06T09:07:45.199Z,1.6083
2023-05-06T09:08:47.401Z,1.5250
2023-05-06T09:09:49.803Z,1.7615
2023-05-06T09:10:52.147Z,1.5417
2023-05-06T09:11:54.468Z,1.7250
2023-05-06T09:12:56.957Z,1.5385
2023-05-06T09:13:59.275Z,1.6167
2023-05-06T09:15:01.547Z,1.6083
2023-05-06T09:16:03.887Z,1.7250
2023-05-06T09:17:06.273Z,1.6385
2023-05-06T09:18:08.689Z,1.6167
2023-05-06T09:19:10.938Z,1.6000
2023-05-06T09:20:13.342Z,1.7917
2023-05-06T09:21:15.658Z,1.5385
2023-05-06T09:22:18.028Z,1.6615
2023-05-06T09:23:20.376Z,1.7308
2023-05-06T09:24:22.787Z,1.8462
2023-05-06T09:25:25.118Z,1.6167
2023-05-06T09:26:27.450Z,1.7417
2023-05-06T09:27:29.762Z,2.0750
2023-05-06T09:28:32.139Z,1.8154
2023-05-06T09:29:34.504Z,1.8077
2023-05-06T09:30:36.829Z,1.9846
2023-05-06T09:31:39.215Z,2.1182
2023-05-06T09:32:41.568Z,2.2000
2023-05-06T09:33:43.858Z,1.9846
2023-05-06T09:34:47.622Z,1.8545
2023-05-06T09:35:48.628Z,2.0583
2023-05-06T09:36:51.140Z,2.0364
2023-05-06T09:38:12.447Z,1.9417
2023-05-06T09:39:03.249Z,2.3286
2023-05-06T09:39:57.955Z,2.0182
2023-05-06T09:41:01.903Z,1.9923
2023-05-06T09:42:02.737Z,1.9667
2023-05-06T09:43:05.076Z,1.9154
2023-05-06T09:44:07.405Z,1.9846
2023-05-06T09:45:10.023Z,1.8692
2023-05-06T09:46:12.077Z,1.8750
2023-05-06T09:47:14.445Z,1.9077
2023-05-06T09:48:18.947Z,1.9923
2023-05-06T09:49:20.777Z,2.0667
2023-05-06T09:50:21.738Z,1.9000
2023-05-06T09:51:23.847Z,1.9250
2023-05-06T09:52:26.194Z,1.7923
2023-05-06T09:53:28.544Z,1.6538
2023-05-06T09:54:30.912Z,1.8692
2023-05-06T09:55:33.258Z,1.8385
2023-05-06T09:56:35.637Z,1.8667
2023-05-06T09:57:37.932Z,1.6000
2023-05-06T09:58:40.628Z,1.8077
2023-05-06T09:59:42.666Z,1.8500
2023-05-06T10:00:45.068Z,1.7308
2023-05-06T10:01:47.416Z,1.7692
2023-05-06T10:02:50.007Z,1.8167
2023-05-06T10:03:52.218Z,1.8250
2023-05-06T10:04:54.698Z,1.7250
2023-05-06T10:05:56.779Z,1.6917
2023-05-06T10:06:59.102Z,1.5769
2023-05-06T10:08:01.433Z,1.5615
2023-05-06T10:09:03.784Z,1.6385
2023-05-06T10:10:06.165Z,1.7846
2023-05-06T10:11:08.515Z,1.6154
2023-05-06T10:12:10.887Z,1.5769
2023-05-06T10:13:13.236Z,1.4769
2023-05-06T10:14:15.569Z,1.5769
2023-05-06T10:15:17.909Z,1.5769
2023-05-06T10:16:20.341Z,1.5923
2023-05-06T10:17:22.638Z,1.5154
2023-05-06T10:18:24.947Z,1.5308
2023-05-06T10:19:27.304Z,1.5231
2023-05-06T10:20:29.643Z,1.4538
2023-05-06T10:21:32.008Z,1.6077
2023-05-06T10:22:34.361Z,1.6231
2023-05-06T10:23:36.698Z,1.4385
2023-05-06T10:24:39.067Z,1.5385
2023-05-06T10:25:41.409Z,1.5231
2023-05-06T10:26:43.774Z,1.6077
2023-05-06T10:27:46.110Z,1.5462
2023-05-06T10:28:48.456Z,1.4667
2023-05-06T10:29:50.797Z,1.5692
2023-05-06T10:30:53.142Z,1.6231
2023-05-06T10:31:55.820Z,1.4231
2023-05-06T10:32:57.918Z,1.5667
2023-05-06T10:34:00.241Z,1.4615
2023-05-06T10:35:02.587Z,1.4308
2023-05-06T10:36:04.941Z,1.5154
2023-05-06T10:37:07.287Z,1.5769
2023-05-06T10:38:09.630Z,1.8385
2023-05-06T10:39:11.980Z,1.5769
2023-05-06T10:40:14.336Z,1.7000
2023-05-06T10:41:16.690Z,1.6692
2023-05-06T10:42:19.050Z,1.6923
2023-05-06T10:43:21.400Z,1.5846
2023-05-06T10:44:23.719Z,1.5846
2023-05-06T10:45:26.105Z,1.6231
2023-05-06T10:46:28.455Z,1.5000
2023-05-06T10:47:30.919Z,1.5923
2023-05-06T10:48:33.131Z,1.6231
2023-05-06T10:49:35.504Z,1.7000
2023-05-06T10:50:37.842Z,1.5692
2023-05-06T10:51:40.206Z,1.5846
2023-05-06T10:52:42.551Z,1.6231
2023-05-06T10:53:44.889Z,1.6769
2023-05-06T10:54:47.266Z,1.6462
2023-05-06T10:55:49.601Z,1.5538
2023-05-06T10:56:51.955Z,1.6077
2023-05-06T10:57:54.288Z,1.5692
2023-05-06T10:58:56.617Z,1.5462
2023-05-06T10:59:58.986Z,1.6000
2023-05-06T11:01:01.381Z,1.5538
2023-05-06T11:02:03.699Z,1.4846
2023-05-06T11:03:06.199Z,1.5846
2023-05-06T11:04:08.395Z,1.5917
2023-05-06T11:05:10.992Z,1.5077
2023-05-06T11:06:13.076Z,1.6333
2023-05-06T11:07:15.416Z,1.7231
2023-05-06T11:08:17.760Z,1.5923
2023-05-06T11:09:20.128Z,1.6077
2023-05-06T11:10:22.471Z,1.6538
2023-05-06T11:11:24.862Z,1.5692
2023-05-06T11:12:27.177Z,1.4154
2023-05-06T11:13:29.655Z,1.4462
2023-05-06T11:14:32.377Z,1.4833
2023-05-06T11:15:34.220Z,1.6167
2023-05-06T11:16:38.684Z,1.6769
2023-05-06T11:17:38.941Z,1.6917
2023-05-06T11:18:41.349Z,1.7846
2023-05-06T11:19:43.640Z,1.8462
2023-05-06T11:20:45.980Z,1.6846
2023-05-06T11:21:50.060Z,1.6692
2023-05-06T11:22:50.684Z,1.6750
2023-05-06T11:23:52.991Z,1.7462
2023-05-06T11:24:55.374Z,1.7231
2023-05-06T11:25:57.722Z,1.6462
2023-05-06T11:27:00.054Z,1.5615
2023-05-06T11:28:02.427Z,1.8462
2023-05-06T11:29:04.743Z,1.7462
2023-05-06T11:30:07.140Z,1.6077
2023-05-06T11:31:09.558Z,1.5538
2023-05-06T11:32:11.801Z,1.6083
2023-05-06T11:33:14.305Z,1.6615
2023-05-06T11:34:16.649Z,1.6167
2023-05-06T11:35:18.865Z,1.6250
2023-05-06T11:36:21.212Z,1.5769
2023-05-06T11:37:23.569Z,1.7462
2023-05-06T11:38:25.876Z,1.7154
2023-05-06T11:39:28.226Z,1.7308
2023-05-06T11:40:30.569Z,1.7000
2023-05-06T11:41:32.940Z,1.6769
2023-05-06T11:42:35.284Z,1.5077
2023-05-06T11:43:37.633Z,1.6846
2023-05-06T11:44:39.970Z,1.5538
2023-05-06T11:45:42.331Z,1.6615
2023-05-06T11:46:44.701Z,1.6923
2023-05-06T11:47:47.152Z,1.6846
2023-05-06T11:48:49.333Z,1.5417
2023-05-06T11:49:51.780Z,1.7462
2023-05-06T11:50:54.063Z,1.7000
2023-05-06T11:51:56.398Z,1.5846
2023-05-06T11:52:58.721Z,1.5308
2023-05-06T11:54:01.107Z,1.8000
2023-05-06T11:55:03.443Z,1.5385
2023-05-06T11:56:05.975Z,1.4923
2023-05-06T11:57:08.160Z,1.3250
2023-05-06T11:58:10.500Z,1.4833
2023-05-06T11:59:12.882Z,1.5077
2023-05-06T12:00:15.775Z,1.6500
2023-05-06T12:01:46.341Z,1.3000
2023-05-06T12:02:48.794Z,1.5615
2023-05-06T12:03:51.218Z,1.3333
2023-05-06T12:04:53.592Z,1.6333
2023-05-06T12:05:56.054Z,1.5167
2023-05-06T12:06:58.388Z,1.6364
2023-05-06T12:08:00.442Z,1.6500
2023-05-06T12:09:02.835Z,1.5923
2023-05-06T12:10:05.184Z,1.7083
2023-05-06T12:11:07.666Z,1.6846
2023-05-06T12:12:09.868Z,1.6750
2023-05-06T12:13:12.274Z,1.7154
2023-05-06T12:14:14.522Z,1.6750
2023-05-06T12:15:16.881Z,1.6077
2023-05-06T12:16:19.321Z,1.6692
2023-05-06T12:17:21.595Z,1.6917
2023-05-06T12:18:23.905Z,1.7308
2023-05-06T12:19:26.294Z,1.7308
2023-05-06T12:20:28.621Z,1.7000
2023-05-06T12:21:31.045Z,1.7615
2023-05-06T12:22:33.314Z,1.8538
2023-05-06T12:23:35.706Z,1.7769
2023-05-06T12:24:38.015Z,1.7231
2023-05-06T12:25:40.345Z,1.7846
2023-05-06T12:26:42.734Z,1.8154
2023-05-06T12:27:45.065Z,1.8077
2023-05-06T12:28:47.388Z,1.8923
2023-05-06T12:29:49.749Z,1.9615
2023-05-06T12:30:52.098Z,1.6385
2023-05-06T12:31:54.494Z,1.8538
2023-05-06T12:32:56.901Z,1.9000
2023-05-06T12:34:01.088Z,1.8250
2023-05-06T12:35:01.492Z,1.8583
2023-05-06T12:36:03.927Z,1.8154
2023-05-06T12:37:06.264Z,1.8500
2023-05-06T12:38:08.620Z,1.8231
2023-05-06T12:39:10.932Z,1.8385
2023-05-06T12:40:13.754Z,1.9077
2023-05-06T12:41:15.854Z,1.7583
2023-05-06T12:42:18.349Z,1.6417
2023-05-06T12:43:20.359Z,1.8917